Time;durP1;ratioP1;P1;durP2;ratioP2;P2;SDS_P1;SDS_P2;PMS_P1;PMS_P2;Temp;Humidity;BMP_temperature;BMP_pressure;BME280_temperature;BME280_humidity;BME280_pressure;Samples;Min_cycle;Max_cycle;Signal;HPM_P1;HPM_P2
2023/04/09 00:01:32;;;;;;;10.23;5.88;;;;;;;18.75;46.38;102734.88;5039532;28;20064;-26
2023/04/09 00:03:59;;;;;;;6.90;5.57;;;;;;;18.76;46.53;102733.03;5043060;28;20438;-26
2023/04/09 00:06:26;;;;;;;7.22;5.55;;;;;;;18.76;46.30;102725.00;5039702;28;20072;-26
2023/04/09 00:08:53;;;;;;;7.65;5.35;;;;;;;18.76;46.42;102738.41;5043331;28;20045;-25
2023/04/09 00:11:20;;;;;;;7.63;5.80;;;;;;;18.74;46.14;102734.03;5040413;28;20192;-26
2023/04/09 00:13:47;;;;;;;7.88;5.72;;;;;;;18.76;46.09;102730.34;5051424;28;20068;-26
2023/04/09 00:16:13;;;;;;;7.72;5.32;;;;;;;18.74;46.17;102727.81;5042002;28;20055;-25
2023/04/09 00:18:40;;;;;;;8.35;5.30;;;;;;;18.74;46.19;102733.16;5041968;28;20472;-25
2023/04/09 00:21:07;;;;;;;7.25;5.35;;;;;;;18.73;46.17;102734.13;5042176;28;20049;-26
2023/04/09 00:23:34;;;;;;;7.88;5.45;;;;;;;18.72;46.17;102725.22;5040271;28;20409;-26
2023/04/09 00:26:01;;;;;;;9.40;6.22;;;;;;;18.72;46.44;102718.97;5039538;28;20045;-26
2023/04/09 00:28:28;;;;;;;8.30;5.57;;;;;;;18.71;46.10;102720.81;5038941;28;20057;-26
2023/04/09 00:30:54;;;;;;;7.40;5.43;;;;;;;18.72;46.00;102717.16;5057731;28;20135;-26
2023/04/09 00:33:21;;;;;;;8.13;5.72;;;;;;;18.71;46.50;102718.13;5040572;28;20049;-26
2023/04/09 00:35:47;;;;;;;7.55;5.80;;;;;;;18.71;46.12;102712.75;5041270;28;20061;-26
2023/04/09 00:38:14;;;;;;;6.22;4.93;;;;;;;18.71;46.40;102710.06;5043713;28;20147;-26
2023/04/09 00:40:41;;;;;;;7.80;5.88;;;;;;;18.71;45.80;102710.06;5039234;28;20133;-26
2023/04/09 00:43:07;;;;;;;7.82;5.40;;;;;;;18.70;46.23;102710.19;5040819;28;20132;-26
2023/04/09 00:45:35;;;;;;;8.57;5.65;;;;;;;18.69;46.47;102708.41;5041302;28;20429;-25
2023/04/09 00:48:02;;;;;;;7.38;5.32;;;;;;;18.69;46.65;102703.94;5041189;28;20062;-26
2023/04/09 00:50:28;;;;;;;7.07;5.38;;;;;;;18.68;46.13;102702.19;5041316;28;20648;-26
2023/04/09 00:52:55;;;;;;;6.35;4.80;;;;;;;18.68;46.34;102702.19;5043039;28;20468;-26
2023/04/09 00:55:22;;;;;;;6.32;4.60;;;;;;;18.68;46.78;102702.19;5042636;28;20053;-25
2023/04/09 00:57:49;;;;;;;7.25;5.57;;;;;;;18.67;46.15;102697.81;5045477;28;20290;-25
2023/04/09 01:00:15;;;;;;;7.63;5.00;;;;;;;18.67;46.13;102695.13;5042820;28;20053;-25
2023/04/09 01:02:42;;;;;;;6.90;5.22;;;;;;;18.67;46.51;102695.13;5045389;28;20052;-26
2023/04/09 01:05:10;;;;;;;7.28;5.43;;;;;;;18.67;46.04;102694.25;5043138;28;20490;-26
2023/04/09 01:08:07;;;;;;;7.20;4.85;;;;;;;18.65;46.48;102691.69;5043636;28;20049;-25
2023/04/09 01:10:42;;;;;;;8.10;5.20;;;;;;;18.65;46.67;102685.44;5045383;28;21937;-25
2023/04/09 01:13:12;;;;;;;7.78;5.82;;;;;;;18.65;46.15;102691.69;5046239;28;20049;-25
2023/04/09 01:15:46;;;;;;;8.00;5.50;;;;;;;18.63;46.42;102684.72;5041772;28;20051;-25
2023/04/09 01:18:35;;;;;;;7.18;5.30;;;;;;;18.63;46.54;102682.88;5040328;28;20050;-25
2023/04/09 01:21:08;;;;;;;6.57;4.85;;;;;;;18.62;46.13;102678.50;5042217;28;20433;-26
2023/04/09 01:23:57;;;;;;;7.90;5.50;;;;;;;18.59;46.32;102672.47;5043035;28;20060;-26
2023/04/09 01:26:45;;;;;;;8.02;6.05;;;;;;;18.60;46.25;102679.56;5041887;28;20056;-25
2023/04/09 01:29:14;;;;;;;7.03;5.70;;;;;;;18.59;46.27;102684.06;5042062;28;20140;-26
2023/04/09 01:31:43;;;;;;;7.63;5.45;;;;;;;18.59;46.03;102680.53;5043171;28;20049;-26
2023/04/09 01:34:11;;;;;;;6.93;5.50;;;;;;;18.58;46.17;102678.84;5043874;28;20441;-25
2023/04/09 01:36:40;;;;;;;7.40;5.05;;;;;;;18.58;46.32;102689.56;5038664;28;20155;-26
2023/04/09 01:39:07;;;;;;;7.75;5.00;;;;;;;18.57;46.02;102687.84;5043344;28;20049;-26
2023/04/09 01:41:35;;;;;;;6.35;5.00;;;;;;;18.56;46.36;102686.13;5046097;28;20041;-25
2023/04/09 01:44:03;;;;;;;7.85;5.63;;;;;;;18.57;46.07;102687.84;5053405;28;20108;-26
2023/04/09 01:46:30;;;;;;;7.60;5.18;;;;;;;18.57;45.91;102680.63;5050795;28;20049;-25
2023/04/09 01:48:58;;;;;;;8.07;5.50;;;;;;;18.57;46.19;102685.16;5056875;28;20399;-26
2023/04/09 01:51:26;;;;;;;7.93;5.60;;;;;;;18.57;46.40;102685.16;5051615;28;20045;-26
2023/04/09 01:53:53;;;;;;;7.43;5.38;;;;;;;18.57;46.14;102688.69;5054469;28;20124;-25
2023/04/09 01:56:20;;;;;;;9.38;5.38;;;;;;;18.57;45.97;102691.38;5052246;28;20063;-26
2023/04/09 01:58:46;;;;;;;7.82;5.63;;;;;;;18.58;46.42;102684.19;5047771;28;20080;-26
2023/04/09 02:01:22;;;;;;;7.53;5.30;;;;;;;18.57;46.38;102688.69;5044310;28;20052;-26
2023/04/09 02:04:04;;;;;;;7.97;5.50;;;;;;;18.57;45.82;102694.06;5043371;28;20143;-25
2023/04/09 02:06:50;;;;;;;7.40;5.45;;;;;;;18.58;46.16;102690.44;5049232;28;20053;-26
2023/04/09 02:09:20;;;;;;;8.05;5.70;;;;;;;18.59;46.22;102680.53;5044765;28;20350;-26
2023/04/09 02:11:49;;;;;;;7.38;5.07;;;;;;;18.59;46.29;102684.06;5042042;28;20060;-25
2023/04/09 02:14:17;;;;;;;6.82;5.30;;;;;;;18.61;46.18;102687.50;5043176;28;20052;-26
2023/04/09 02:16:45;;;;;;;6.88;5.50;;;;;;;18.60;46.11;102682.25;5042386;28;20059;-25
2023/04/09 02:19:11;;;;;;;7.90;5.63;;;;;;;18.59;45.88;102681.41;5044648;28;20063;-26
2023/04/09 02:21:38;;;;;;;9.40;6.15;;;;;;;18.61;45.92;102683.94;5043139;28;20052;-26
2023/04/09 02:24:05;;;;;;;7.80;5.60;;;;;;;18.61;46.27;102678.56;5043549;28;20080;-25
2023/04/09 02:26:31;;;;;;;7.90;5.70;;;;;;;18.58;45.76;102682.38;5044126;28;20053;-25
2023/04/09 02:28:58;;;;;;;7.07;5.65;;;;;;;18.60;46.15;102679.56;5044685;28;20620;-25
2023/04/09 02:31:24;;;;;;;8.02;5.78;;;;;;;18.59;46.09;102675.16;5042137;28;20067;-25
2023/04/09 02:33:52;;;;;;;6.88;4.93;;;;;;;18.60;46.01;102679.56;5044196;28;20044;-26
2023/04/09 02:36:19;;;;;;;8.27;5.65;;;;;;;18.59;45.80;102683.22;5041652;28;20361;-25
2023/04/09 02:38:46;;;;;;;7.63;5.90;;;;;;;18.58;46.15;102677.00;5040976;28;20095;-25
2023/04/09 02:41:12;;;;;;;8.00;5.35;;;;;;;18.59;46.05;102672.47;5042395;28;20441;-26
2023/04/09 02:43:39;;;;;;;7.63;5.65;;;;;;;18.59;46.22;102669.78;5052415;28;20083;-26
2023/04/09 02:46:06;;;;;;;7.88;5.72;;;;;;;18.59;46.13;102667.09;5051238;28;20056;-26
2023/04/09 02:48:32;;;;;;;9.73;6.32;;;;;;;18.58;46.34;102666.25;5053880;28;20105;-26
2023/04/09 02:50:59;;;;;;;7.22;5.15;;;;;;;18.58;45.89;102663.56;5052326;28;20044;-25
2023/04/09 02:53:26;;;;;;;7.55;5.15;;;;;;;18.58;45.94;102660.88;5052214;28;20421;-26
2023/04/09 02:55:52;;;;;;;8.18;5.88;;;;;;;18.58;45.89;102654.66;5051253;28;20045;-25
2023/04/09 02:58:19;;;;;;;7.75;5.68;;;;;;;18.58;45.77;102658.19;5053087;28;20107;-25
2023/04/09 03:00:45;;;;;;;7.07;5.22;;;;;;;18.57;45.92;102659.16;5051921;28;20102;-25
2023/04/09 03:03:12;;;;;;;8.23;5.75;;;;;;;18.56;45.67;102652.06;5052185;28;20101;-26
2023/04/09 03:05:39;;;;;;;8.27;5.60;;;;;;;18.56;45.75;102652.06;5052256;28;20041;-25
2023/04/09 03:08:05;;;;;;;8.50;5.90;;;;;;;18.56;45.70;102649.38;5051279;28;20337;-26
2023/04/09 03:10:32;;;;;;;6.78;5.40;;;;;;;18.56;45.59;102649.38;5048083;28;20067;-26
2023/04/09 03:12:59;;;;;;;7.93;5.28;;;;;;;18.55;45.78;102645.00;5050536;28;20045;-25
2023/04/09 03:15:25;;;;;;;9.23;6.03;;;;;;;18.54;45.75;102645.97;5046258;28;20465;-26
2023/04/09 03:17:52;;;;;;;8.25;5.82;;;;;;;18.54;45.88;102645.13;5042206;28;20136;-25
2023/04/09 03:20:18;;;;;;;8.05;6.15;;;;;;;18.53;45.72;102638.84;5039799;28;20079;-25
2023/04/09 03:22:45;;;;;;;8.23;5.50;;;;;;;18.53;46.08;102638.84;5041689;28;20057;-26
2023/04/09 03:25:11;;;;;;;6.78;5.20;;;;;;;18.53;46.14;102643.38;5041186;28;20057;-26
2023/04/09 03:27:38;;;;;;;7.60;5.63;;;;;;;18.52;46.18;102642.53;5042787;28;20140;-26
2023/04/09 03:30:05;;;;;;;8.20;5.95;;;;;;;18.52;45.74;102638.97;5040827;28;20159;-25
2023/04/09 03:32:31;;;;;;;8.75;6.18;;;;;;;18.52;45.80;102642.53;5043180;28;20436;-25
2023/04/09 03:34:58;;;;;;;7.78;5.50;;;;;;;18.50;45.87;102637.28;5043110;28;20433;-26
2023/04/09 03:37:25;;;;;;;7.47;5.60;;;;;;;18.50;45.76;102633.75;5040984;28;20057;-26
2023/04/09 03:39:51;;;;;;;6.30;5.00;;;;;;;18.50;45.99;102631.06;5044677;28;20049;-25
2023/04/09 03:42:18;;;;;;;7.00;5.55;;;;;;;18.49;45.94;102626.63;5052075;28;20348;-26
2023/04/09 03:44:44;;;;;;;7.65;5.75;;;;;;;18.49;45.57;102630.19;5044132;28;20053;-26
2023/04/09 03:47:11;;;;;;;7.68;5.70;;;;;;;18.48;45.90;102628.47;5041680;28;20060;-26
2023/04/09 03:49:37;;;;;;;7.82;5.95;;;;;;;18.48;45.90;102628.47;5042378;28;20340;-26
2023/04/09 03:52:05;;;;;;;8.50;5.18;;;;;;;18.49;45.87;102627.50;5051348;28;20651;-26
2023/04/09 03:54:32;;;;;;;6.70;4.95;;;;;;;18.49;45.84;102626.63;5040027;28;20391;-25
2023/04/09 03:56:58;;;;;;;6.97;5.18;;;;;;;18.49;45.89;102619.47;5025806;28;20348;-27
2023/04/09 03:59:25;;;;;;;6.13;4.93;;;;;;;18.49;46.05;102621.25;5042589;28;20049;-25
2023/04/09 04:01:51;;;;;;;6.78;5.28;;;;;;;18.48;45.88;102617.72;5042574;28;20053;-27
2023/04/09 04:04:18;;;;;;;7.32;5.38;;;;;;;18.48;45.88;102617.72;5041439;28;20057;-25
2023/04/09 04:06:49;;;;;;;8.15;5.47;;;;;;;18.47;45.60;102615.16;5041470;28;20052;-25
2023/04/09 04:09:15;;;;;;;7.45;5.15;;;;;;;18.47;45.92;102612.47;5042236;28;20067;-26
2023/04/09 04:11:42;;;;;;;7.78;5.65;;;;;;;18.47;45.76;102612.47;5042061;28;20049;-26
2023/04/09 04:14:09;;;;;;;6.68;5.28;;;;;;;18.46;46.10;102611.63;5043851;28;20467;-25
2023/04/09 04:16:35;;;;;;;7.80;5.63;;;;;;;18.45;46.31;102609.91;5042019;28;20049;-25
2023/04/09 04:19:02;;;;;;;7.03;5.22;;;;;;;18.45;46.26;102614.41;5041191;28;20408;-26
2023/04/09 04:21:28;;;;;;;7.50;5.72;;;;;;;18.44;45.74;102610.88;5042677;28;20045;-27
2023/04/09 04:23:55;;;;;;;8.48;5.22;;;;;;;18.44;45.66;102615.38;5036887;28;20048;-25
2023/04/09 04:26:21;;;;;;;7.70;5.72;;;;;;;18.44;46.12;102608.19;5043307;28;20076;-26
2023/04/09 04:28:48;;;;;;;6.88;5.28;;;;;;;18.43;45.72;102608.31;5040148;28;20049;-25
2023/04/09 04:31:15;;;;;;;7.38;5.43;;;;;;;18.43;46.14;102601.09;5042686;28;20066;-25
2023/04/09 04:33:41;;;;;;;7.70;5.40;;;;;;;18.44;46.24;102612.69;5041037;28;20535;-26
2023/04/09 04:36:12;;;;;;;6.88;5.20;;;;;;;18.43;45.76;102609.16;5040789;28;20056;-25
2023/04/09 04:38:40;;;;;;;6.80;5.25;;;;;;;18.43;46.12;102611.00;5037591;28;20056;-25
2023/04/09 04:41:07;;;;;;;6.70;5.22;;;;;;;18.44;46.19;102607.31;5044086;28;20055;-26
2023/04/09 04:43:34;;;;;;;7.03;5.38;;;;;;;18.43;46.11;102608.31;5051714;28;20132;-26
2023/04/09 04:46:00;;;;;;;7.30;5.65;;;;;;;18.42;45.88;102609.28;5048118;28;20052;-25
2023/04/09 04:48:28;;;;;;;7.25;5.50;;;;;;;18.42;46.07;102614.66;5046083;28;20048;-26
2023/04/09 04:50:56;;;;;;;6.10;5.05;;;;;;;18.41;45.73;102612.91;5047817;28;20047;-25
2023/04/09 04:53:23;;;;;;;7.78;5.22;;;;;;;18.41;45.96;102612.91;5042660;28;20080;-25
2023/04/09 04:55:50;;;;;;;6.88;5.47;;;;;;;18.39;46.23;102610.34;5042779;28;20055;-25
2023/04/09 04:58:16;;;;;;;7.43;5.32;;;;;;;18.41;45.94;102613.81;5047655;28;20463;-25
2023/04/09 05:00:43;;;;;;;8.48;5.70;;;;;;;18.39;45.88;102610.34;5043467;28;20176;-26
2023/04/09 05:03:11;;;;;;;7.53;5.85;;;;;;;18.40;45.94;102613.91;5044675;28;20049;-26
2023/04/09 05:05:37;;;;;;;8.93;6.32;;;;;;;18.40;46.11;102611.22;5046511;28;20049;-24
2023/04/09 05:08:04;;;;;;;9.18;7.00;;;;;;;18.39;46.40;102609.50;5044437;28;20049;-24
2023/04/09 05:10:30;;;;;;;10.48;6.55;;;;;;;18.38;46.49;102614.03;5039902;28;20080;-24
2023/04/09 05:12:57;;;;;;;7.45;5.75;;;;;;;18.37;46.58;102620.38;5043550;28;20333;-24
2023/04/09 05:15:23;;;;;;;7.55;5.05;;;;;;;18.36;46.15;102615.09;5034915;28;20067;-24
2023/04/09 05:17:50;;;;;;;8.05;5.72;;;;;;;18.36;45.99;102618.63;5039124;28;20055;-24
2023/04/09 05:20:17;;;;;;;7.47;5.28;;;;;;;18.35;46.50;102618.75;5040427;28;20052;-25
2023/04/09 05:22:43;;;;;;;8.50;6.25;;;;;;;18.35;46.50;102618.75;5040562;28;20057;-24
2023/04/09 05:25:10;;;;;;;7.65;5.85;;;;;;;18.35;46.32;102621.44;5020311;28;20401;-25
2023/04/09 05:27:36;;;;;;;8.25;5.47;;;;;;;18.34;46.11;102623.25;5039002;28;20095;-24
2023/04/09 05:30:03;;;;;;;9.98;6.03;;;;;;;18.33;46.56;102624.25;5034664;28;20340;-24
2023/04/09 05:32:30;;;;;;;7.90;5.70;;;;;;;18.33;46.33;102626.94;5038717;28;20083;-24
2023/04/09 05:34:56;;;;;;;8.52;5.65;;;;;;;18.32;46.46;102625.19;5037998;28;20049;-24
2023/04/09 05:37:23;;;;;;;8.20;5.68;;;;;;;18.31;46.40;102628.84;5041020;28;20049;-24
2023/04/09 05:39:49;;;;;;;7.20;5.50;;;;;;;18.31;46.13;102628.00;5041305;28;20132;-24
2023/04/09 05:42:16;;;;;;;7.80;5.68;;;;;;;18.30;46.50;102631.66;5048995;28;20057;-24
2023/04/09 05:44:42;;;;;;;6.95;5.72;;;;;;;18.30;46.70;102629.84;5039981;28;20511;-24
2023/04/09 05:47:09;;;;;;;8.27;5.97;;;;;;;18.30;46.58;102623.59;5038441;28;20056;-24
2023/04/09 05:49:36;;;;;;;7.60;5.50;;;;;;;18.29;46.07;102622.75;5039741;28;20048;-24
2023/04/09 05:52:02;;;;;;;8.30;5.35;;;;;;;18.30;46.08;102620.94;5039933;28;20060;-24
2023/04/09 05:54:30;;;;;;;8.98;6.00;;;;;;;18.29;45.90;102624.56;5034999;28;20646;-24
2023/04/09 05:56:56;;;;;;;7.40;5.38;;;;;;;18.30;46.59;102628.97;5038605;28;20044;-24
2023/04/09 05:59:23;;;;;;;7.40;5.22;;;;;;;18.30;46.30;102628.97;5040734;28;20349;-24
2023/04/09 06:01:49;;;;;;;8.73;6.30;;;;;;;18.30;46.05;102624.47;5037599;28;20401;-24
2023/04/09 06:04:16;;;;;;;8.05;5.95;;;;;;;18.32;46.14;102632.38;5041059;28;20057;-23
2023/04/09 06:06:43;;;;;;;8.07;6.18;;;;;;;18.31;46.27;102644.09;5038346;28;20084;-24
2023/04/09 06:09:09;;;;;;;8.52;6.00;;;;;;;18.32;46.34;102640.44;5037780;28;20040;-24
2023/04/09 06:11:36;;;;;;;9.25;6.00;;;;;;;18.31;46.27;102636.91;5041673;28;20091;-24
2023/04/09 06:14:02;;;;;;;8.65;5.78;;;;;;;18.31;46.46;102636.91;5040308;28;20639;-24
2023/04/09 06:16:29;;;;;;;8.80;6.18;;;;;;;18.33;46.18;102642.16;5042380;28;20072;-24
2023/04/09 06:18:56;;;;;;;9.00;6.20;;;;;;;18.32;46.20;102635.94;5039027;28;20131;-25
2023/04/09 06:21:22;;;;;;;9.40;6.30;;;;;;;18.33;46.05;102645.72;5044687;28;20163;-24
2023/04/09 06:23:50;;;;;;;8.52;6.32;;;;;;;18.33;46.06;102644.84;5045931;28;20507;-24
2023/04/09 06:26:17;;;;;;;8.43;5.88;;;;;;;18.33;46.22;102643.03;5045296;28;20318;-24
2023/04/09 06:28:44;;;;;;;9.75;5.85;;;;;;;18.32;46.06;102641.28;5041815;28;20053;-24
2023/04/09 06:31:11;;;;;;;8.63;6.00;;;;;;;18.33;46.31;102647.53;5044802;28;20045;-24
2023/04/09 06:33:37;;;;;;;8.85;6.00;;;;;;;18.32;46.16;102635.94;5037751;28;20072;-24
2023/04/09 06:36:04;;;;;;;9.15;6.55;;;;;;;18.33;46.06;102647.53;5042166;28;20053;-24
2023/04/09 06:38:31;;;;;;;7.70;5.97;;;;;;;18.33;46.40;102640.34;5044077;28;20115;-25
2023/04/09 06:40:57;;;;;;;8.38;6.22;;;;;;;18.33;45.94;102643.03;5042636;28;20345;-24
2023/04/09 06:43:24;;;;;;;9.70;6.45;;;;;;;18.32;46.09;102643.97;5045746;28;20496;-24
2023/04/09 06:45:50;;;;;;;7.75;5.63;;;;;;;18.32;45.99;102641.28;5050750;28;20048;-24
2023/04/09 06:48:17;;;;;;;10.88;6.57;;;;;;;18.33;46.57;102652.88;5048679;28;20056;-24
2023/04/09 06:50:44;;;;;;;9.48;6.95;;;;;;;18.34;46.12;102651.94;5045656;28;20048;-24
2023/04/09 06:53:11;;;;;;;11.73;7.65;;;;;;;18.33;46.32;102650.19;5048849;28;20057;-24
2023/04/09 06:55:37;;;;;;;12.05;7.65;;;;;;;18.31;46.10;102650.31;5047821;28;20414;-25
2023/04/09 06:58:04;;;;;;;11.75;7.57;;;;;;;18.32;46.37;102653.88;5050361;28;20053;-24
2023/04/09 07:00:31;;;;;;;11.30;8.15;;;;;;;18.32;46.30;102653.88;5041604;28;20044;-26
2023/04/09 07:02:57;;;;;;;10.98;7.82;;;;;;;18.34;46.82;102655.47;5031327;28;20074;-26
2023/04/09 07:05:25;;;;;;;12.73;8.63;;;;;;;18.37;46.55;102654.38;5033570;28;20044;-26
2023/04/09 07:07:51;;;;;;;14.43;8.65;;;;;;;18.40;46.52;102660.38;5040443;28;20103;-26
2023/04/09 07:10:18;;;;;;;14.93;10.02;;;;;;;18.43;46.60;102662.00;5040241;28;20049;-27
2023/04/09 07:12:44;;;;;;;14.82;10.60;;;;;;;18.46;46.48;102659.09;5037234;28;20047;-26
2023/04/09 07:15:11;;;;;;;14.75;9.43;;;;;;;18.47;46.72;102653.59;5032519;28;20529;-26
2023/04/09 07:17:38;;;;;;;70.30;28.85;;;;;;;18.51;46.81;102654.25;5033295;28;20052;-27
2023/04/09 07:20:05;;;;;;;129.20;45.65;;;;;;;18.55;47.16;102658.41;5032425;28;20040;-26
2023/04/09 07:22:31;;;;;;;120.07;41.10;;;;;;;18.59;47.34;102651.00;5026561;28;20065;-26
2023/04/09 07:24:58;;;;;;;123.25;41.45;;;;;;;18.64;47.37;102663.09;5033995;28;20045;-27
2023/04/09 07:27:26;;;;;;;103.35;39.67;;;;;;;18.67;47.19;102659.34;5033189;28;20088;-27
2023/04/09 07:29:57;;;;;;;103.57;36.88;;;;;;;18.70;47.59;102659.16;5033547;28;20515;-27
2023/04/09 07:32:25;;;;;;;94.72;35.58;;;;;;;18.71;47.34;102656.34;5034002;28;20363;-26
2023/04/09 07:34:53;;;;;;;87.18;33.47;;;;;;;18.73;47.50;102656.22;5031006;28;22747;-26
2023/04/09 07:37:19;;;;;;;76.78;30.67;;;;;;;18.75;47.98;102662.34;5029090;28;20049;-26
2023/04/09 07:39:47;;;;;;;76.65;31.90;;;;;;;18.77;47.76;102655.03;5030476;28;20045;-26
2023/04/09 07:42:13;;;;;;;70.93;31.02;;;;;;;18.82;48.29;102660.06;5037914;28;20057;-27
2023/04/09 07:44:40;;;;;;;73.95;28.95;;;;;;;18.84;47.68;102653.59;5029991;28;20550;-26
2023/04/09 07:47:07;;;;;;;71.22;29.95;;;;;;;18.87;48.00;102658.75;5032891;28;20059;-26
2023/04/09 07:49:37;;;;;;;60.55;28.33;;;;;;;18.91;48.40;102656.69;5031703;28;20177;-26
2023/04/09 07:52:05;;;;;;;68.72;29.55;;;;;;;18.94;48.22;102654.63;5036463;28;20353;-27
2023/04/09 07:54:32;;;;;;;65.45;28.35;;;;;;;18.96;48.17;102651.81;5032106;28;21781;-26
2023/04/09 07:57:02;;;;;;;60.35;28.10;;;;;;;18.99;48.17;102648.91;5033969;28;20063;-27
2023/04/09 07:59:30;;;;;;;61.75;28.60;;;;;;;19.02;48.48;102646.00;5034871;28;20044;-27
2023/04/09 08:01:57;;;;;;;57.35;28.05;;;;;;;19.04;47.85;102651.25;5034382;28;20140;-26
2023/04/09 08:04:24;;;;;;;56.30;26.90;;;;;;;19.07;48.08;102653.72;5036590;28;20075;-26
2023/04/09 08:06:52;;;;;;;52.63;27.25;;;;;;;19.08;48.21;102661.63;5029981;28;20056;-26
2023/04/09 08:09:20;;;;;;;49.03;25.85;;;;;;;19.12;48.48;102660.44;5036189;28;20405;-26
2023/04/09 08:11:47;;;;;;;50.00;27.02;;;;;;;19.14;47.97;102657.66;5031303;28;20417;-27
2023/04/09 08:14:15;;;;;;;52.47;27.48;;;;;;;19.16;48.00;102656.53;5034295;28;20052;-27
2023/04/09 08:16:44;;;;;;;49.75;25.88;;;;;;;19.19;48.56;102650.09;5028565;28;20059;-29
2023/04/09 08:19:13;;;;;;;46.47;25.10;;;;;;;19.21;48.46;102661.56;5036194;28;20776;-27
2023/04/09 08:21:42;;;;;;;44.22;24.55;;;;;;;19.24;48.25;102655.94;5032413;28;20721;-27
2023/04/09 08:24:10;;;;;;;42.40;23.95;;;;;;;19.27;48.39;102652.19;5030782;28;20063;-26
2023/04/09 08:26:38;;;;;;;45.35;25.73;;;;;;;19.29;47.77;102653.75;5031191;28;20057;-27
2023/04/09 08:29:05;;;;;;;45.85;24.48;;;;;;;19.31;47.77;102650.97;5030356;28;20115;-27
2023/04/09 08:31:31;;;;;;;45.17;25.10;;;;;;;19.33;48.35;102640.94;5033012;28;20340;-27
2023/04/09 08:33:58;;;;;;;45.17;24.73;;;;;;;19.36;48.14;102651.47;5032679;28;20106;-27
2023/04/09 08:36:26;;;;;;;40.92;23.52;;;;;;;19.37;48.30;102645.97;5031989;28;20333;-27
2023/04/09 08:38:55;;;;;;;43.25;23.85;;;;;;;19.37;47.71;102637.91;5031812;28;20059;-27
2023/04/09 08:41:24;;;;;;;45.22;24.83;;;;;;;19.37;48.46;102645.09;5030299;28;20131;-27
2023/04/09 08:43:52;;;;;;;41.08;24.33;;;;;;;19.38;47.99;102649.53;5030861;28;20057;-27
2023/04/09 08:46:24;;;;;;;41.63;23.58;;;;;;;19.42;47.98;102642.94;5034562;28;20132;-27
2023/04/09 08:48:51;;;;;;;39.90;23.58;;;;;;;19.44;48.25;102640.97;5031634;28;20064;-27
2023/04/09 08:51:20;;;;;;;38.85;23.15;;;;;;;19.47;48.35;102646.13;5036597;28;20055;-28
2023/04/09 08:53:58;;;;;;;41.70;23.42;;;;;;;19.48;48.22;102643.31;5032619;28;20456;-27
2023/04/09 08:56:29;;;;;;;37.63;22.70;;;;;;;19.52;47.82;102646.63;5033937;28;20055;-27
2023/04/09 08:58:56;;;;;;;36.00;23.05;;;;;;;19.55;48.13;102649.06;5034916;28;20508;-27
2023/04/09 09:01:27;;;;;;;34.78;21.45;;;;;;;19.57;48.14;102643.56;5033210;28;20139;-27
2023/04/09 09:04:08;;;;;;;34.25;20.17;;;;;;;19.61;48.27;102637.84;5035420;28;20107;-26
2023/04/09 09:06:37;;;;;;;36.53;21.38;;;;;;;19.67;47.57;102641.91;5035473;28;20380;-27
2023/04/09 09:09:15;;;;;;;37.38;22.73;;;;;;;19.71;48.59;102638.84;5035345;28;20343;-27
2023/04/09 09:11:47;;;;;;;38.88;24.08;;;;;;;19.76;48.12;102640.31;5035526;28;20120;-28
2023/04/09 09:14:17;;;;;;;40.15;24.33;;;;;;;19.79;47.82;102635.56;5025436;28;20127;-28
2023/04/09 09:17:03;;;;;;;37.60;24.60;;;;;;;19.80;47.75;102634.56;5023305;28;20148;-28
2023/04/09 09:19:32;;;;;;;39.95;23.73;;;;;;;19.86;48.17;102634.09;5025704;28;20527;-39
2023/04/09 09:22:09;;;;;;;36.05;22.83;;;;;;;19.91;48.00;102637.28;5031110;28;20060;-41
2023/04/09 09:24:47;;;;;;;40.88;24.23;;;;;;;19.93;47.71;102629.91;5029421;28;20060;-40
2023/04/09 09:27:32;;;;;;;36.92;22.98;;;;;;;19.96;48.40;102631.53;5019539;28;20051;-41
2023/04/09 09:30:00;;;;;;;36.95;22.60;;;;;;;19.99;47.87;102636.66;5027053;28;20050;-41
2023/04/09 09:32:26;;;;;;;34.78;22.77;;;;;;;20.02;47.70;102632.84;5034348;28;20071;-37
2023/04/09 09:35:04;;;;;;;35.08;22.52;;;;;;;20.04;48.08;102629.06;5039921;28;20049;-36
2023/04/09 09:37:32;;;;;;;32.15;21.55;;;;;;;20.09;47.39;102631.38;5030389;28;20046;-37
2023/04/09 09:40:00;;;;;;;36.67;22.73;;;;;;;20.11;47.82;102632.13;5031792;28;20049;-36
2023/04/09 09:42:26;;;;;;;32.88;21.15;;;;;;;20.13;47.79;102619.38;5029520;28;20063;-40
2023/04/09 09:44:54;;;;;;;33.17;21.33;;;;;;;20.14;46.83;102621.97;5029720;28;20048;-37
2023/04/09 09:47:21;;;;;;;32.65;20.63;;;;;;;20.16;47.37;102609.22;5017685;28;20045;-34
2023/04/09 09:49:49;;;;;;;32.28;20.35;;;;;;;20.20;47.04;102621.47;5024300;28;20052;-39
2023/04/09 09:52:25;;;;;;;33.22;21.42;;;;;;;20.20;46.77;102616.06;5020062;28;20052;-35
2023/04/09 09:54:54;;;;;;;33.50;21.08;;;;;;;20.25;47.54;102617.53;5020427;28;20340;-35
2023/04/09 09:57:24;;;;;;;29.50;19.73;;;;;;;20.26;46.89;102613.84;5022288;28;20053;-36
2023/04/09 09:59:59;;;;;;;34.22;20.98;;;;;;;20.27;46.85;102613.75;5029773;28;20073;-34
2023/04/09 10:02:31;;;;;;;28.48;18.88;;;;;;;20.29;47.23;102600.16;5031666;28;20080;-39
2023/04/09 10:05:03;;;;;;;32.00;20.45;;;;;;;20.32;47.27;102592.69;5026269;28;20052;-37
2023/04/09 10:07:29;;;;;;;30.23;19.92;;;;;;;20.34;47.67;102600.63;5027430;28;20290;-38
2023/04/09 10:09:59;;;;;;;32.65;22.00;;;;;;;20.36;47.54;102591.44;5026524;28;20049;-36
2023/04/09 10:12:27;;;;;;;34.45;22.55;;;;;;;20.40;47.27;102594.75;5024953;28;20049;-35
2023/04/09 10:14:59;;;;;;;41.45;26.75;;;;;;;20.40;47.33;102590.22;5020656;28;20053;-35
2023/04/09 10:17:25;;;;;;;39.58;25.25;;;;;;;20.40;46.93;102584.81;5021412;28;20692;-34
2023/04/09 10:20:31;;;;;;;35.05;22.65;;;;;;;20.40;47.16;102582.13;5017737;28;20174;-38
2023/04/09 10:23:02;;;;;;;36.63;23.88;;;;;;;20.45;47.50;102576.34;5022913;28;20100;-38
2023/04/09 10:25:29;;;;;;;41.97;22.08;;;;;;;20.46;47.55;102568.16;5027778;28;20059;-34
2023/04/09 10:28:01;;;;;;;40.00;20.10;;;;;;;20.49;46.89;102567.06;5027732;28;20049;-35
2023/04/09 10:30:35;;;;;;;35.92;22.42;;;;;;;20.51;47.58;102559.72;5025261;28;20044;-35
2023/04/09 10:33:13;;;;;;;34.33;22.83;;;;;;;20.54;47.40;102561.28;5023564;28;20411;-35
2023/04/09 10:35:41;;;;;;;32.28;20.98;;;;;;;20.58;47.15;102560.94;5026980;28;20052;-34
2023/04/09 10:38:12;;;;;;;39.53;22.30;;;;;;;20.60;47.13;102550.00;5024252;28;20059;-33
2023/04/09 10:40:41;;;;;;;33.47;21.08;;;;;;;20.64;47.52;102551.47;5027309;28;20041;-36
2023/04/09 10:43:09;;;;;;;32.15;20.38;;;;;;;20.66;47.10;102549.47;5029013;28;20353;-34
2023/04/09 10:45:40;;;;;;;33.30;21.48;;;;;;;20.68;46.95;102551.06;5027380;28;20053;-35
2023/04/09 10:48:14;;;;;;;33.80;20.83;;;;;;;20.75;46.86;102548.72;5024294;28;20063;-35
2023/04/09 10:50:44;;;;;;;;;;;;;;;20.78;46.42;102543.06;5023069;28;20048;-35
2023/04/09 10:53:22;;;;;;;29.48;20.05;;;;;;;20.83;46.53;102543.53;5026273;28;20393;-42
2023/04/09 10:55:51;;;;;;;28.90;19.05;;;;;;;20.85;46.54;102538.00;5024214;28;20052;-36
2023/04/09 10:58:18;;;;;;;30.80;20.67;;;;;;;20.86;46.85;102551.34;5027870;28;20621;-38
2023/04/09 11:00:47;;;;;;;35.13;20.45;;;;;;;20.85;46.38;102549.63;5026165;28;20048;-40
2023/04/09 11:03:26;;;;;;;30.52;21.40;;;;;;;20.86;45.95;102554.03;5029144;28;20059;-36
2023/04/09 11:06:09;;;;;;;31.08;21.30;;;;;;;20.88;46.11;102543.13;5031050;28;21120;-41
2023/04/09 11:08:41;;;;;;;29.48;20.20;;;;;;;20.92;45.94;102537.34;5027960;28;20077;-36
2023/04/09 11:11:08;;;;;;;30.08;19.98;;;;;;;20.92;45.64;102533.81;5028951;28;20053;-36
2023/04/09 11:13:34;;;;;;;32.15;21.02;;;;;;;20.92;46.12;102529.25;5028005;28;20494;-36
2023/04/09 11:16:05;;;;;;;34.90;19.65;;;;;;;20.92;45.97;102528.41;5020611;28;20184;-36
2023/04/09 11:18:34;;;;;;;30.70;18.77;;;;;;;20.91;46.23;102526.72;5025327;28;20208;-36
2023/04/09 11:21:03;;;;;;;27.45;17.10;;;;;;;20.90;46.20;102516.91;5029614;28;20057;-35
2023/04/09 11:23:30;;;;;;;32.10;18.33;;;;;;;20.91;46.25;102521.31;5025610;28;20756;-37
2023/04/09 11:25:57;;;;;;;27.20;18.42;;;;;;;20.98;46.00;102521.63;5025476;28;20376;-35